sensor_id;sensor_type;location;lat;lon;timestamp;temperature;humidity
7296;DHT22;40758;54.038;11.684;2022-09-14T00:01:48;15.90;99.90
7296;DHT22;40758;54.038;11.684;2022-09-14T00:04:18;15.90;99.90
7296;DHT22;40758;54.038;11.684;2022-09-14T00:06:47;15.90;99.90
7296;DHT22;40758;54.038;11.684;2022-09-14T00:09:16;15.90;99.90
7296;DHT22;40758;54.038;11.684;2022-09-14T00:11:48;15.80;99.90
7296;DHT22;40758;54.038;11.684;2022-09-14T00:14:17;15.90;99.90
7296;DHT22;40758;54.038;11.684;2022-09-14T00:16:46;15.90;99.90
7296;DHT22;40758;54.038;11.684;2022-09-14T00:19:17;15.80;99.90
7296;DHT22;40758;54.038;11.684;2022-09-14T00:21:49;15.80;99.90
7296;DHT22;40758;54.038;11.684;2022-09-14T00:24:19;15.80;99.90
7296;DHT22;40758;54.038;11.684;2022-09-14T00:26:49;15.80;99.90
7296;DHT22;40758;54.038;11.684;2022-09-14T00:29:18;15.80;99.90
7296;DHT22;40758;54.038;11.684;2022-09-14T00:31:54;15.80;99.90
7296;DHT22;40758;54.038;11.684;2022-09-14T00:34:23;15.80;99.90
7296;DHT22;40758;54.038;11.684;2022-09-14T00:36:51;15.80;99.90
7296;DHT22;40758;54.038;11.684;2022-09-14T00:39:21;15.80;99.90
7296;DHT22;40758;54.038;11.684;2022-09-14T00:41:52;15.80;99.90
7296;DHT22;40758;54.038;11.684;2022-09-14T00:47:27;15.80;99.90
7296;DHT22;40758;54.038;11.684;2022-09-14T00:49:58;15.80;99.90
7296;DHT22;40758;54.038;11.684;2022-09-14T00:52:30;15.70;99.90
7296;DHT22;40758;54.038;11.684;2022-09-14T00:55:01;15.70;99.90
7296;DHT22;40758;54.038;11.684;2022-09-14T00:57:35;15.70;99.90
7296;DHT22;40758;54.038;11.684;2022-09-14T01:00:08;15.70;99.90
7296;DHT22;40758;54.038;11.684;2022-09-14T01:02:39;15.70;99.90
7296;DHT22;40758;54.038;11.684;2022-09-14T01:05:08;15.70;99.90
7296;DHT22;40758;54.038;11.684;2022-09-14T01:07:47;15.70;99.90
7296;DHT22;40758;54.038;11.684;2022-09-14T01:10:38;15.70;99.90
7296;DHT22;40758;54.038;11.684;2022-09-14T01:13:22;15.70;99.90
7296;DHT22;40758;54.038;11.684;2022-09-14T01:15:57;15.70;99.90
7296;DHT22;40758;54.038;11.684;2022-09-14T01:18:37;15.60;99.90
7296;DHT22;40758;54.038;11.684;2022-09-14T01:21:13;15.60;99.90
7296;DHT22;40758;54.038;11.684;2022-09-14T01:23:46;15.60;99.90
7296;DHT22;40758;54.038;11.684;2022-09-14T01:26:36;15.50;99.90
7296;DHT22;40758;54.038;11.684;2022-09-14T01:29:17;15.50;99.90
7296;DHT22;40758;54.038;11.684;2022-09-14T01:31:53;15.50;99.90
7296;DHT22;40758;54.038;11.684;2022-09-14T01:34:26;15.50;99.90
7296;DHT22;40758;54.038;11.684;2022-09-14T01:36:59;15.50;99.90
7296;DHT22;40758;54.038;11.684;2022-09-14T01:39:39;15.50;99.90
7296;DHT22;40758;54.038;11.684;2022-09-14T01:42:11;15.40;99.90
7296;DHT22;40758;54.038;11.684;2022-09-14T01:44:42;15.40;99.90
7296;DHT22;40758;54.038;11.684;2022-09-14T01:47:15;15.30;99.90
7296;DHT22;40758;54.038;11.684;2022-09-14T01:49:49;15.20;99.90
7296;DHT22;40758;54.038;11.684;2022-09-14T01:52:21;15.10;99.90
7296;DHT22;40758;54.038;11.684;2022-09-14T01:54:55;15.00;99.90
7296;DHT22;40758;54.038;11.684;2022-09-14T01:57:30;14.90;99.90
7296;DHT22;40758;54.038;11.684;2022-09-14T02:00:05;14.80;99.90
7296;DHT22;40758;54.038;11.684;2022-09-14T02:02:37;14.80;99.90
7296;DHT22;40758;54.038;11.684;2022-09-14T02:05:11;14.80;99.90
7296;DHT22;40758;54.038;11.684;2022-09-14T02:07:44;14.80;99.90
7296;DHT22;40758;54.038;11.684;2022-09-14T02:10:14;14.80;99.90
7296;DHT22;40758;54.038;11.684;2022-09-14T02:12:44;14.80;99.90
7296;DHT22;40758;54.038;11.684;2022-09-14T02:15:14;14.80;99.90
7296;DHT22;40758;54.038;11.684;2022-09-14T02:17:43;14.80;99.90
7296;DHT22;40758;54.038;11.684;2022-09-14T02:20:13;14.80;99.90
7296;DHT22;40758;54.038;11.684;2022-09-14T02:22:48;14.80;99.90
7296;DHT22;40758;54.038;11.684;2022-09-14T02:25:19;14.80;99.90
7296;DHT22;40758;54.038;11.684;2022-09-14T02:27:48;14.80;99.90
7296;DHT22;40758;54.038;11.684;2022-09-14T02:30:19;14.80;99.90
7296;DHT22;40758;54.038;11.684;2022-09-14T02:32:52;14.80;99.90
7296;DHT22;40758;54.038;11.684;2022-09-14T02:35:29;14.80;99.90
7296;DHT22;40758;54.038;11.684;2022-09-14T02:38:07;14.70;99.90
7296;DHT22;40758;54.038;11.684;2022-09-14T02:40:42;14.70;99.90
7296;DHT22;40758;54.038;11.684;2022-09-14T02:43:21;14.70;99.90
7296;DHT22;40758;54.038;11.684;2022-09-14T02:46:03;14.60;99.90
7296;DHT22;40758;54.038;11.684;2022-09-14T02:48:37;14.60;99.90
7296;DHT22;40758;54.038;11.684;2022-09-14T02:51:13;14.60;99.90
7296;DHT22;40758;54.038;11.684;2022-09-14T02:53:50;14.50;99.90
7296;DHT22;40758;54.038;11.684;2022-09-14T02:56:27;14.40;99.90
7296;DHT22;40758;54.038;11.684;2022-09-14T02:58:56;14.40;99.90
7296;DHT22;40758;54.038;11.684;2022-09-14T03:01:26;14.40;99.90
7296;DHT22;40758;54.038;11.684;2022-09-14T03:03:55;14.40;99.90
7296;DHT22;40758;54.038;11.684;2022-09-14T03:06:24;14.50;99.90
7296;DHT22;40758;54.038;11.684;2022-09-14T03:08:53;14.60;99.90
7296;DHT22;40758;54.038;11.684;2022-09-14T03:11:21;14.60;99.90
7296;DHT22;40758;54.038;11.684;2022-09-14T03:13:49;14.70;99.90
7296;DHT22;40758;54.038;11.684;2022-09-14T03:16:18;14.70;99.90
7296;DHT22;40758;54.038;11.684;2022-09-14T03:18:52;14.80;99.90
7296;DHT22;40758;54.038;11.684;2022-09-14T03:21:21;14.80;99.90
7296;DHT22;40758;54.038;11.684;2022-09-14T03:23:50;14.70;99.90
7296;DHT22;40758;54.038;11.684;2022-09-14T03:26:21;14.80;99.90
7296;DHT22;40758;54.038;11.684;2022-09-14T03:28:51;14.90;99.90
7296;DHT22;40758;54.038;11.684;2022-09-14T03:31:21;14.90;99.90
7296;DHT22;40758;54.038;11.684;2022-09-14T03:33:52;15.00;99.90
7296;DHT22;40758;54.038;11.684;2022-09-14T03:36:23;15.00;99.90
7296;DHT22;40758;54.038;11.684;2022-09-14T03:38:54;15.00;99.90
7296;DHT22;40758;54.038;11.684;2022-09-14T03:41:23;15.00;99.90
7296;DHT22;40758;54.038;11.684;2022-09-14T03:43:52;15.10;99.90
7296;DHT22;40758;54.038;11.684;2022-09-14T03:46:21;15.10;99.90
7296;DHT22;40758;54.038;11.684;2022-09-14T03:48:50;15.10;99.90
7296;DHT22;40758;54.038;11.684;2022-09-14T03:51:21;15.10;99.90
7296;DHT22;40758;54.038;11.684;2022-09-14T03:53:50;15.10;99.90
7296;DHT22;40758;54.038;11.684;2022-09-14T03:56:19;15.10;99.90
7296;DHT22;40758;54.038;11.684;2022-09-14T03:58:50;15.10;99.90
7296;DHT22;40758;54.038;11.684;2022-09-14T04:01:19;15.20;99.90
7296;DHT22;40758;54.038;11.684;2022-09-14T04:03:49;15.20;99.90
7296;DHT22;40758;54.038;11.684;2022-09-14T04:06:22;15.20;99.90
7296;DHT22;40758;54.038;11.684;2022-09-14T04:08:51;15.20;99.90
7296;DHT22;40758;54.038;11.684;2022-09-14T04:11:21;15.20;99.90
7296;DHT22;40758;54.038;11.684;2022-09-14T04:13:50;15.20;99.90
7296;DHT22;40758;54.038;11.684;2022-09-14T04:16:20;15.10;99.90
7296;DHT22;40758;54.038;11.684;2022-09-14T04:18:52;15.00;99.90
7296;DHT22;40758;54.038;11.684;2022-09-14T04:21:21;14.90;99.90
7296;DHT22;40758;54.038;11.684;2022-09-14T04:23:55;14.80;99.90
7296;DHT22;40758;54.038;11.684;2022-09-14T04:26:44;14.80;99.90
7296;DHT22;40758;54.038;11.684;2022-09-14T04:29:13;14.90;99.90
7296;DHT22;40758;54.038;11.684;2022-09-14T04:31:42;14.90;99.90
7296;DHT22;40758;54.038;11.684;2022-09-14T04:34:11;14.90;99.90
7296;DHT22;40758;54.038;11.684;2022-09-14T04:36:44;14.90;99.90
7296;DHT22;40758;54.038;11.684;2022-09-14T04:39:13;14.90;99.90
7296;DHT22;40758;54.038;11.684;2022-09-14T04:41:42;14.90;99.90
7296;DHT22;40758;54.038;11.684;2022-09-14T04:44:10;14.70;99.90
7296;DHT22;40758;54.038;11.684;2022-09-14T04:46:40;14.60;99.90
7296;DHT22;40758;54.038;11.684;2022-09-14T04:49:12;14.50;99.90
7296;DHT22;40758;54.038;11.684;2022-09-14T04:51:43;14.40;99.90
7296;DHT22;40758;54.038;11.684;2022-09-14T04:54:15;14.20;99.90
7296;DHT22;40758;54.038;11.684;2022-09-14T04:56:44;14.10;99.90
7296;DHT22;40758;54.038;11.684;2022-09-14T04:59:13;14.10;99.90
7296;DHT22;40758;54.038;11.684;2022-09-14T05:01:53;14.00;99.90
7296;DHT22;40758;54.038;11.684;2022-09-14T05:04:33;14.00;99.90
7296;DHT22;40758;54.038;11.684;2022-09-14T05:07:11;13.90;99.90
7296;DHT22;40758;54.038;11.684;2022-09-14T05:09:45;13.90;99.90
7296;DHT22;40758;54.038;11.684;2022-09-14T05:12:13;14.00;99.90
7296;DHT22;40758;54.038;11.684;2022-09-14T05:14:42;14.00;99.90
7296;DHT22;40758;54.038;11.684;2022-09-14T05:17:10;14.10;99.90
7296;DHT22;40758;54.038;11.684;2022-09-14T05:19:40;14.10;99.90
7296;DHT22;40758;54.038;11.684;2022-09-14T05:22:16;14.10;99.90
7296;DHT22;40758;54.038;11.684;2022-09-14T05:24:44;14.10;99.90
7296;DHT22;40758;54.038;11.684;2022-09-14T05:27:14;14.10;99.90
7296;DHT22;40758;54.038;11.684;2022-09-14T05:29:42;14.10;99.90
7296;DHT22;40758;54.038;11.684;2022-09-14T05:32:13;14.10;99.90
7296;DHT22;40758;54.038;11.684;2022-09-14T05:34:42;14.20;99.90
7296;DHT22;40758;54.038;11.684;2022-09-14T05:37:11;14.20;99.90
7296;DHT22;40758;54.038;11.684;2022-09-14T05:39:40;14.30;99.90
7296;DHT22;40758;54.038;11.684;2022-09-14T05:42:09;14.40;99.90
7296;DHT22;40758;54.038;11.684;2022-09-14T05:44:38;14.40;99.90
7296;DHT22;40758;54.038;11.684;2022-09-14T05:47:06;14.50;99.90
7296;DHT22;40758;54.038;11.684;2022-09-14T05:49:36;14.70;99.90
7296;DHT22;40758;54.038;11.684;2022-09-14T05:52:09;14.80;99.90
7296;DHT22;40758;54.038;11.684;2022-09-14T05:54:45;14.90;99.90
7296;DHT22;40758;54.038;11.684;2022-09-14T05:57:14;15.00;99.90
7296;DHT22;40758;54.038;11.684;2022-09-14T05:59:43;15.10;99.90
7296;DHT22;40758;54.038;11.684;2022-09-14T06:02:13;15.10;99.90
7296;DHT22;40758;54.038;11.684;2022-09-14T06:04:44;15.10;99.90
7296;DHT22;40758;54.038;11.684;2022-09-14T06:07:13;15.10;99.90
7296;DHT22;40758;54.038;11.684;2022-09-14T06:09:47;15.10;99.90
7296;DHT22;40758;54.038;11.684;2022-09-14T06:12:15;15.20;99.90
7296;DHT22;40758;54.038;11.684;2022-09-14T06:14:44;15.20;99.90
7296;DHT22;40758;54.038;11.684;2022-09-14T06:17:13;15.30;99.90
7296;DHT22;40758;54.038;11.684;2022-09-14T06:19:44;15.20;99.90
7296;DHT22;40758;54.038;11.684;2022-09-14T06:22:13;15.20;99.90
7296;DHT22;40758;54.038;11.684;2022-09-14T06:24:42;15.20;99.90
7296;DHT22;40758;54.038;11.684;2022-09-14T06:27:12;15.30;99.90
7296;DHT22;40758;54.038;11.684;2022-09-14T06:29:41;15.30;99.90
7296;DHT22;40758;54.038;11.684;2022-09-14T06:32:10;15.40;99.90
7296;DHT22;40758;54.038;11.684;2022-09-14T06:34:42;15.40;99.90
7296;DHT22;40758;54.038;11.684;2022-09-14T06:37:11;15.40;99.90
7296;DHT22;40758;54.038;11.684;2022-09-14T06:39:40;15.30;99.90
7296;DHT22;40758;54.038;11.684;2022-09-14T06:42:09;15.20;99.90
7296;DHT22;40758;54.038;11.684;2022-09-14T06:44:42;15.20;99.90
7296;DHT22;40758;54.038;11.684;2022-09-14T06:47:24;15.10;99.90
7296;DHT22;40758;54.038;11.684;2022-09-14T06:49:52;15.20;99.90
7296;DHT22;40758;54.038;11.684;2022-09-14T06:52:21;15.30;99.90
7296;DHT22;40758;54.038;11.684;2022-09-14T06:54:50;15.30;99.90
7296;DHT22;40758;54.038;11.684;2022-09-14T06:57:18;15.40;99.90
7296;DHT22;40758;54.038;11.684;2022-09-14T06:59:49;15.50;99.90
7296;DHT22;40758;54.038;11.684;2022-09-14T07:02:18;15.50;99.90
7296;DHT22;40758;54.038;11.684;2022-09-14T07:04:47;15.50;99.90
7296;DHT22;40758;54.038;11.684;2022-09-14T07:07:16;15.70;99.90
7296;DHT22;40758;54.038;11.684;2022-09-14T07:09:45;15.90;99.90
7296;DHT22;40758;54.038;11.684;2022-09-14T07:12:13;16.10;99.90
7296;DHT22;40758;54.038;11.684;2022-09-14T07:14:42;16.20;99.90
7296;DHT22;40758;54.038;11.684;2022-09-14T07:17:12;16.30;99.90
7296;DHT22;40758;54.038;11.684;2022-09-14T07:19:42;16.30;99.90
7296;DHT22;40758;54.038;11.684;2022-09-14T07:22:11;16.40;99.90
7296;DHT22;40758;54.038;11.684;2022-09-14T07:24:40;16.70;99.90
7296;DHT22;40758;54.038;11.684;2022-09-14T07:27:09;17.00;99.90
7296;DHT22;40758;54.038;11.684;2022-09-14T07:29:38;17.00;99.90
7296;DHT22;40758;54.038;11.684;2022-09-14T07:32:07;17.00;99.90
7296;DHT22;40758;54.038;11.684;2022-09-14T07:34:41;16.80;99.90
7296;DHT22;40758;54.038;11.684;2022-09-14T07:37:16;16.60;99.90
7296;DHT22;40758;54.038;11.684;2022-09-14T07:39:46;16.70;99.90
7296;DHT22;40758;54.038;11.684;2022-09-14T07:42:16;17.00;99.90
7296;DHT22;40758;54.038;11.684;2022-09-14T07:44:44;17.20;99.90
7296;DHT22;40758;54.038;11.684;2022-09-14T07:47:17;17.40;99.90
7296;DHT22;40758;54.038;11.684;2022-09-14T07:49:47;17.30;99.90
7296;DHT22;40758;54.038;11.684;2022-09-14T07:52:15;17.10;99.90
7296;DHT22;40758;54.038;11.684;2022-09-14T07:54:44;17.00;99.90
7296;DHT22;40758;54.038;11.684;2022-09-14T07:57:15;16.90;99.90
7296;DHT22;40758;54.038;11.684;2022-09-14T07:59:43;16.90;99.90
7296;DHT22;40758;54.038;11.684;2022-09-14T08:02:12;17.10;99.90
7296;DHT22;40758;54.038;11.684;2022-09-14T08:04:44;17.10;99.90
7296;DHT22;40758;54.038;11.684;2022-09-14T08:07:14;16.90;99.90
7296;DHT22;40758;54.038;11.684;2022-09-14T08:09:43;16.80;99.90
7296;DHT22;40758;54.038;11.684;2022-09-14T08:12:13;16.90;99.90
7296;DHT22;40758;54.038;11.684;2022-09-14T08:14:42;16.90;99.90
7296;DHT22;40758;54.038;11.684;2022-09-14T08:17:12;16.80;99.90
7296;DHT22;40758;54.038;11.684;2022-09-14T08:19:40;16.70;99.90
7296;DHT22;40758;54.038;11.684;2022-09-14T08:22:10;16.90;99.90
7296;DHT22;40758;54.038;11.684;2022-09-14T08:24:43;17.20;99.90
7296;DHT22;40758;54.038;11.684;2022-09-14T08:27:11;17.50;99.90
7296;DHT22;40758;54.038;11.684;2022-09-14T08:29:48;17.80;99.90
7296;DHT22;40758;54.038;11.684;2022-09-14T08:32:23;18.10;99.90
7296;DHT22;40758;54.038;11.684;2022-09-14T08:34:51;17.80;99.90
7296;DHT22;40758;54.038;11.684;2022-09-14T08:37:20;17.90;99.90
7296;DHT22;40758;54.038;11.684;2022-09-14T08:39:53;18.20;99.90
7296;DHT22;40758;54.038;11.684;2022-09-14T08:42:21;18.20;99.90
7296;DHT22;40758;54.038;11.684;2022-09-14T08:44:54;18.40;99.90
7296;DHT22;40758;54.038;11.684;2022-09-14T08:47:26;18.20;99.90
7296;DHT22;40758;54.038;11.684;2022-09-14T08:49:59;18.20;99.90
7296;DHT22;40758;54.038;11.684;2022-09-14T08:52:32;18.50;99.90
7296;DHT22;40758;54.038;11.684;2022-09-14T08:55:13;18.60;99.90
7296;DHT22;40758;54.038;11.684;2022-09-14T08:57:50;19.00;99.90
7296;DHT22;40758;54.038;11.684;2022-09-14T09:00:33;19.40;99.90
7296;DHT22;40758;54.038;11.684;2022-09-14T09:06:23;19.70;99.90
7296;DHT22;40758;54.038;11.684;2022-09-14T09:09:01;19.20;99.90
7296;DHT22;40758;54.038;11.684;2022-09-14T09:11:36;19.40;99.90
7296;DHT22;40758;54.038;11.684;2022-09-14T09:14:15;19.50;99.90
7296;DHT22;40758;54.038;11.684;2022-09-14T09:16:48;19.20;99.90
7296;DHT22;40758;54.038;11.684;2022-09-14T09:19:20;19.00;99.90
7296;DHT22;40758;54.038;11.684;2022-09-14T09:21:54;18.90;99.90
7296;DHT22;40758;54.038;11.684;2022-09-14T09:24:25;18.50;99.90
7296;DHT22;40758;54.038;11.684;2022-09-14T09:27:09;18.20;99.90
7296;DHT22;40758;54.038;11.684;2022-09-14T09:29:38;18.60;99.90
7296;DHT22;40758;54.038;11.684;2022-09-14T09:32:09;18.80;99.90
7296;DHT22;40758;54.038;11.684;2022-09-14T09:34:42;19.00;99.90
7296;DHT22;40758;54.038;11.684;2022-09-14T09:37:16;19.20;99.90
7296;DHT22;40758;54.038;11.684;2022-09-14T09:39:46;19.10;99.90
7296;DHT22;40758;54.038;11.684;2022-09-14T09:42:21;19.10;99.90
7296;DHT22;40758;54.038;11.684;2022-09-14T09:44:55;18.60;99.90
7296;DHT22;40758;54.038;11.684;2022-09-14T09:47:30;18.50;99.90
7296;DHT22;40758;54.038;11.684;2022-09-14T09:50:01;18.60;99.90
7296;DHT22;40758;54.038;11.684;2022-09-14T09:52:32;18.90;99.90
7296;DHT22;40758;54.038;11.684;2022-09-14T09:55:01;18.70;99.90
7296;DHT22;40758;54.038;11.684;2022-09-14T09:57:34;18.90;99.90
7296;DHT22;40758;54.038;11.684;2022-09-14T10:00:08;19.50;99.90
7296;DHT22;40758;54.038;11.684;2022-09-14T10:02:44;20.40;99.90
7296;DHT22;40758;54.038;11.684;2022-09-14T10:05:21;20.50;99.90
7296;DHT22;40758;54.038;11.684;2022-09-14T10:07:52;20.30;99.90
7296;DHT22;40758;54.038;11.684;2022-09-14T10:10:39;19.90;99.90
7296;DHT22;40758;54.038;11.684;2022-09-14T10:13:17;20.10;99.90
7296;DHT22;40758;54.038;11.684;2022-09-14T10:15:52;20.80;99.90
7296;DHT22;40758;54.038;11.684;2022-09-14T10:18:21;21.60;99.90
7296;DHT22;40758;54.038;11.684;2022-09-14T10:21:07;22.10;99.90
7296;DHT22;40758;54.038;11.684;2022-09-14T10:23:37;22.50;99.90
7296;DHT22;40758;54.038;11.684;2022-09-14T10:26:17;22.40;99.90
7296;DHT22;40758;54.038;11.684;2022-09-14T10:28:51;22.40;99.90
7296;DHT22;40758;54.038;11.684;2022-09-14T10:31:23;22.50;99.90
7296;DHT22;40758;54.038;11.684;2022-09-14T10:33:56;22.10;99.90
7296;DHT22;40758;54.038;11.684;2022-09-14T10:36:27;22.30;99.90
7296;DHT22;40758;54.038;11.684;2022-09-14T10:38:59;23.30;99.90
7296;DHT22;40758;54.038;11.684;2022-09-14T10:41:36;23.50;99.90
7296;DHT22;40758;54.038;11.684;2022-09-14T10:47:22;23.60;99.90
7296;DHT22;40758;54.038;11.684;2022-09-14T10:50:14;22.70;99.90
7296;DHT22;40758;54.038;11.684;2022-09-14T10:52:55;22.40;99.90
7296;DHT22;40758;54.038;11.684;2022-09-14T10:55:34;22.50;99.90
7296;DHT22;40758;54.038;11.684;2022-09-14T10:58:14;23.10;99.90
7296;DHT22;40758;54.038;11.684;2022-09-14T11:00:54;22.60;99.90
7296;DHT22;40758;54.038;11.684;2022-09-14T11:03:37;21.70;99.90
7296;DHT22;40758;54.038;11.684;2022-09-14T11:06:33;20.90;99.90
7296;DHT22;40758;54.038;11.684;2022-09-14T11:09:15;19.90;99.90
7296;DHT22;40758;54.038;11.684;2022-09-14T11:11:53;19.30;99.90
7296;DHT22;40758;54.038;11.684;2022-09-14T11:14:33;18.90;99.90
7296;DHT22;40758;54.038;11.684;2022-09-14T11:17:19;18.60;99.90
7296;DHT22;40758;54.038;11.684;2022-09-14T11:20:04;18.30;99.90
7296;DHT22;40758;54.038;11.684;2022-09-14T11:22:43;18.20;99.90
7296;DHT22;40758;54.038;11.684;2022-09-14T11:25:17;18.30;99.90
7296;DHT22;40758;54.038;11.684;2022-09-14T11:27:52;18.20;99.90
7296;DHT22;40758;54.038;11.684;2022-09-14T11:30:29;18.10;99.90
7296;DHT22;40758;54.038;11.684;2022-09-14T11:33:09;18.10;99.90
7296;DHT22;40758;54.038;11.684;2022-09-14T11:35:57;18.30;99.90
7296;DHT22;40758;54.038;11.684;2022-09-14T11:38:33;18.70;99.90
7296;DHT22;40758;54.038;11.684;2022-09-14T11:41:06;18.90;99.90
7296;DHT22;40758;54.038;11.684;2022-09-14T11:43:45;18.90;99.90
7296;DHT22;40758;54.038;11.684;2022-09-14T11:46:17;18.70;99.90
7296;DHT22;40758;54.038;11.684;2022-09-14T11:48:53;18.50;99.90
7296;DHT22;40758;54.038;11.684;2022-09-14T11:51:42;18.40;99.90
7296;DHT22;40758;54.038;11.684;2022-09-14T11:54:17;18.50;99.90
7296;DHT22;40758;54.038;11.684;2022-09-14T11:56:48;18.50;99.90
7296;DHT22;40758;54.038;11.684;2022-09-14T11:59:36;18.30;99.90
7296;DHT22;40758;54.038;11.684;2022-09-14T12:05:33;18.00;99.90
7296;DHT22;40758;54.038;11.684;2022-09-14T12:08:27;17.80;99.90
7296;DHT22;40758;54.038;11.684;2022-09-14T12:11:25;17.80;99.90
7296;DHT22;40758;54.038;11.684;2022-09-14T12:14:20;17.60;99.90
7296;DHT22;40758;54.038;11.684;2022-09-14T12:17:11;17.50;99.90
7296;DHT22;40758;54.038;11.684;2022-09-14T12:23:20;17.30;99.90
7296;DHT22;40758;54.038;11.684;2022-09-14T12:25:53;17.20;99.90
7296;DHT22;40758;54.038;11.684;2022-09-14T12:28:40;17.20;99.90
7296;DHT22;40758;54.038;11.684;2022-09-14T12:31:34;17.10;99.90
7296;DHT22;40758;54.038;11.684;2022-09-14T12:34:13;17.10;99.90
7296;DHT22;40758;54.038;11.684;2022-09-14T12:36:59;17.00;99.90
7296;DHT22;40758;54.038;11.684;2022-09-14T12:40:12;16.90;99.90
7296;DHT22;40758;54.038;11.684;2022-09-14T12:49:00;16.90;99.90
7296;DHT22;40758;54.038;11.684;2022-09-14T12:51:35;17.00;99.90
7296;DHT22;40758;54.038;11.684;2022-09-14T12:54:19;17.10;99.90
7296;DHT22;40758;54.038;11.684;2022-09-14T12:56:56;17.30;99.90
7296;DHT22;40758;54.038;11.684;2022-09-14T12:59:32;17.50;99.90
7296;DHT22;40758;54.038;11.684;2022-09-14T13:05:13;17.60;99.90
7296;DHT22;40758;54.038;11.684;2022-09-14T13:07:44;17.40;99.90
7296;DHT22;40758;54.038;11.684;2022-09-14T13:10:17;17.40;99.90
7296;DHT22;40758;54.038;11.684;2022-09-14T13:12:47;17.30;99.90
7296;DHT22;40758;54.038;11.684;2022-09-14T13:15:20;17.30;99.90
7296;DHT22;40758;54.038;11.684;2022-09-14T13:17:55;17.40;99.90
7296;DHT22;40758;54.038;11.684;2022-09-14T13:20:25;17.40;99.90
7296;DHT22;40758;54.038;11.684;2022-09-14T13:22:54;17.40;99.90
7296;DHT22;40758;54.038;11.684;2022-09-14T13:25:28;17.40;99.90
7296;DHT22;40758;54.038;11.684;2022-09-14T13:28:01;17.50;99.90
7296;DHT22;40758;54.038;11.684;2022-09-14T13:30:33;17.50;99.90
7296;DHT22;40758;54.038;11.684;2022-09-14T13:33:03;17.60;99.90
7296;DHT22;40758;54.038;11.684;2022-09-14T13:35:32;17.70;99.90
7296;DHT22;40758;54.038;11.684;2022-09-14T13:38:06;17.90;99.90
7296;DHT22;40758;54.038;11.684;2022-09-14T13:40:42;18.10;99.90
7296;DHT22;40758;54.038;11.684;2022-09-14T13:43:11;18.20;99.90
7296;DHT22;40758;54.038;11.684;2022-09-14T13:45:40;18.20;99.90
7296;DHT22;40758;54.038;11.684;2022-09-14T13:48:09;18.30;99.90
7296;DHT22;40758;54.038;11.684;2022-09-14T13:50:40;18.30;99.90
7296;DHT22;40758;54.038;11.684;2022-09-14T13:56:15;18.10;99.90
7296;DHT22;40758;54.038;11.684;2022-09-14T13:58:46;18.20;99.90
7296;DHT22;40758;54.038;11.684;2022-09-14T14:01:23;18.00;99.90
7296;DHT22;40758;54.038;11.684;2022-09-14T14:03:53;17.90;99.90
7296;DHT22;40758;54.038;11.684;2022-09-14T14:06:24;17.90;99.90
7296;DHT22;40758;54.038;11.684;2022-09-14T14:08:59;18.10;99.90
7296;DHT22;40758;54.038;11.684;2022-09-14T14:11:32;18.10;99.90
7296;DHT22;40758;54.038;11.684;2022-09-14T14:14:15;17.90;99.90
7296;DHT22;40758;54.038;11.684;2022-09-14T14:19:49;18.00;99.90
7296;DHT22;40758;54.038;11.684;2022-09-14T14:22:20;17.90;99.90
7296;DHT22;40758;54.038;11.684;2022-09-14T14:24:53;17.90;99.90
7296;DHT22;40758;54.038;11.684;2022-09-14T14:27:42;17.90;99.90
7296;DHT22;40758;54.038;11.684;2022-09-14T14:30:14;17.90;99.90
7296;DHT22;40758;54.038;11.684;2022-09-14T14:32:48;17.90;99.90
7296;DHT22;40758;54.038;11.684;2022-09-14T14:35:18;17.70;99.90
7296;DHT22;40758;54.038;11.684;2022-09-14T14:37:48;17.70;99.90
7296;DHT22;40758;54.038;11.684;2022-09-14T14:40:17;17.70;99.90
7296;DHT22;40758;54.038;11.684;2022-09-14T14:42:48;17.60;99.90
7296;DHT22;40758;54.038;11.684;2022-09-14T14:45:21;17.50;99.90
7296;DHT22;40758;54.038;11.684;2022-09-14T14:47:52;17.60;99.90
7296;DHT22;40758;54.038;11.684;2022-09-14T14:50:24;17.60;99.90
7296;DHT22;40758;54.038;11.684;2022-09-14T14:52:54;17.60;99.90
7296;DHT22;40758;54.038;11.684;2022-09-14T14:55:23;17.50;99.90
7296;DHT22;40758;54.038;11.684;2022-09-14T14:57:55;17.70;99.90
7296;DHT22;40758;54.038;11.684;2022-09-14T15:00:26;17.80;99.90
7296;DHT22;40758;54.038;11.684;2022-09-14T15:02:57;18.00;99.90
7296;DHT22;40758;54.038;11.684;2022-09-14T15:05:26;18.20;99.90
7296;DHT22;40758;54.038;11.684;2022-09-14T15:07:55;18.10;99.90
7296;DHT22;40758;54.038;11.684;2022-09-14T15:10:24;18.00;99.90
7296;DHT22;40758;54.038;11.684;2022-09-14T15:12:55;17.90;99.90
7296;DHT22;40758;54.038;11.684;2022-09-14T15:15:24;17.90;99.90
7296;DHT22;40758;54.038;11.684;2022-09-14T15:17:53;18.00;99.90
7296;DHT22;40758;54.038;11.684;2022-09-14T15:20:22;18.40;99.90
7296;DHT22;40758;54.038;11.684;2022-09-14T15:22:50;18.80;99.90
7296;DHT22;40758;54.038;11.684;2022-09-14T15:25:19;18.80;99.90
7296;DHT22;40758;54.038;11.684;2022-09-14T15:27:48;18.40;99.90
7296;DHT22;40758;54.038;11.684;2022-09-14T15:30:18;18.20;99.90
7296;DHT22;40758;54.038;11.684;2022-09-14T15:32:47;18.00;99.90
7296;DHT22;40758;54.038;11.684;2022-09-14T15:35:16;18.00;99.90
7296;DHT22;40758;54.038;11.684;2022-09-14T15:37:45;17.90;99.90
7296;DHT22;40758;54.038;11.684;2022-09-14T15:40:14;18.00;99.90
7296;DHT22;40758;54.038;11.684;2022-09-14T15:42:43;18.00;99.90
7296;DHT22;40758;54.038;11.684;2022-09-14T15:45:11;18.00;99.90
7296;DHT22;40758;54.038;11.684;2022-09-14T15:47:41;17.80;99.90
7296;DHT22;40758;54.038;11.684;2022-09-14T15:50:10;17.60;99.90
7296;DHT22;40758;54.038;11.684;2022-09-14T15:52:39;17.40;99.90
7296;DHT22;40758;54.038;11.684;2022-09-14T15:55:09;17.20;99.90
7296;DHT22;40758;54.038;11.684;2022-09-14T15:57:39;17.20;99.90
7296;DHT22;40758;54.038;11.684;2022-09-14T16:00:08;17.20;99.90
7296;DHT22;40758;54.038;11.684;2022-09-14T16:02:38;17.10;99.90
7296;DHT22;40758;54.038;11.684;2022-09-14T16:05:09;17.10;99.90
7296;DHT22;40758;54.038;11.684;2022-09-14T16:07:41;17.10;99.90
7296;DHT22;40758;54.038;11.684;2022-09-14T16:10:09;17.00;99.90
7296;DHT22;40758;54.038;11.684;2022-09-14T16:12:38;17.00;99.90
7296;DHT22;40758;54.038;11.684;2022-09-14T16:15:07;16.90;99.90
7296;DHT22;40758;54.038;11.684;2022-09-14T16:17:38;16.80;99.90
7296;DHT22;40758;54.038;11.684;2022-09-14T16:20:11;16.80;99.90
7296;DHT22;40758;54.038;11.684;2022-09-14T16:22:40;16.70;99.90
7296;DHT22;40758;54.038;11.684;2022-09-14T16:25:08;16.70;99.90
7296;DHT22;40758;54.038;11.684;2022-09-14T16:27:37;16.70;99.90
7296;DHT22;40758;54.038;11.684;2022-09-14T16:30:06;16.70;99.90
7296;DHT22;40758;54.038;11.684;2022-09-14T16:32:35;16.70;99.90
7296;DHT22;40758;54.038;11.684;2022-09-14T16:35:05;16.60;99.90
7296;DHT22;40758;54.038;11.684;2022-09-14T16:37:36;16.60;99.90